Potash, Louisiana
Current Conditions -  °F | °C
As of 4:08 PM on Saturday 22 Nov 2014 (Local Time) from K1B7 Reporting Station
Broken Clouds Broken Clouds  
Wind Chill: 64°   Ceiling: 5000
Heat Index: 64°   Visibility: 9mi
Dew Point: 63°   Wind: 10mph
Humidity: 94%   Direction: 110°ESE
Pressure: 30.05"   Gusts: NA
Location:  29.4927°N, 89.8165°W
Report Text: K1B7 222208Z 11009KT 9SM BKN050 18/17 A3005 RMK LAST
Loading
Personal Weather Stations






























Interactive Weather Map New forecast layout! Learn more

10-Day Weather Forecast

Advertisements
Track Severe Weather on mobile